Time;durP1;ratioP1;P1;durP2;ratioP2;P2;SDS_P1;SDS_P2;PMS_P1;PMS_P2;Temp;Humidity;BMP_temperature;BMP_pressure;BME280_temperature;BME280_humidity;BME280_pressure;Samples;Min_cycle;Max_cycle;Signal;HPM_P1;HPM_P2
2023/03/27 00:02:17;;;;;;;9.10;2.53;;;3.20;51.00;;;;;;5046648;28;20052;-64
2023/03/27 00:04:43;;;;;;;9.95;1.90;;;2.90;50.90;;;;;;5055508;28;20056;-64
2023/03/27 00:07:09;;;;;;;9.27;2.03;;;2.50;49.20;;;;;;5051753;28;20413;-64
2023/03/27 00:09:36;;;;;;;10.85;2.42;;;3.00;51.30;;;;;;5052091;28;20514;-64
2023/03/27 00:12:02;;;;;;;11.95;2.25;;;3.00;54.70;;;;;;5053390;28;20065;-64
2023/03/27 00:14:28;;;;;;;11.95;2.45;;;2.70;53.00;;;;;;5055173;28;20452;-64
2023/03/27 00:16:53;;;;;;;11.45;2.40;;;3.00;53.70;;;;;;5050966;28;20434;-64
2023/03/27 00:19:19;;;;;;;8.38;2.20;;;3.00;50.80;;;;;;5036065;28;20041;-64
2023/03/27 00:21:45;;;;;;;9.48;2.50;;;2.70;49.70;;;;;;5050431;28;20083;-64
2023/03/27 00:24:11;;;;;;;6.70;1.60;;;2.30;49.80;;;;;;5052307;28;20072;-64
2023/03/27 00:26:39;;;;;;;9.32;2.45;;;;;;;;;;5057507;28;20040;-64
2023/03/27 00:29:06;;;;;;;11.93;3.05;;;2.80;50.40;;;;;;5051424;28;20490;-64
2023/03/27 00:31:32;;;;;;;17.50;2.33;;;2.70;50.40;;;;;;5048026;28;20044;-65
2023/03/27 00:33:57;;;;;;;9.63;2.03;;;2.30;49.70;;;;;;5049560;28;20082;-64
2023/03/27 00:36:23;;;;;;;10.00;2.47;;;3.00;49.40;;;;;;5051134;28;20068;-63
2023/03/27 00:38:51;;;;;;;11.52;1.80;;;2.60;48.20;;;;;;5051977;28;20461;-64
2023/03/27 00:41:18;;;;;;;10.48;2.13;;;2.30;48.80;;;;;;5040394;28;20037;-64
2023/03/27 00:43:44;;;;;;;6.68;2.00;;;2.90;50.20;;;;;;5049469;28;20035;-64
2023/03/27 00:46:39;;;;;;;9.50;2.85;;;2.50;38.00;;;;;;5055105;28;20049;-65
2023/03/27 00:49:08;;;;;;;11.43;2.58;;;3.20;45.20;;;;;;5058987;28;20116;-65
2023/03/27 00:51:36;;;;;;;9.95;3.00;;;3.00;45.80;;;;;;5041393;28;20048;-65
2023/03/27 00:54:03;;;;;;;11.50;2.40;;;2.90;44.70;;;;;;5053955;28;20452;-65
2023/03/27 00:56:29;;;;;;;12.07;2.60;;;2.80;42.70;;;;;;5052969;28;20131;-65
2023/03/27 00:58:58;;;;;;;8.70;2.25;;;;;;;;;;5056881;28;20041;-64
2023/03/27 01:01:26;;;;;;;13.23;2.30;;;2.40;41.40;;;;;;5053942;28;20068;-65
2023/03/27 01:03:53;;;;;;;17.67;2.20;;;2.20;43.10;;;;;;5034905;28;20042;-65
2023/03/27 01:06:20;;;;;;;7.80;2.22;;;3.00;42.20;;;;;;5047422;28;20522;-64
2023/03/27 01:08:47;;;;;;;8.98;1.83;;;2.40;41.10;;;;;;5046937;28;20057;-64
2023/03/27 01:11:27;;;;;;;10.82;2.92;;;2.20;40.60;;;;;;5044175;28;20040;-65
2023/03/27 01:13:59;;;;;;;7.88;1.90;;;2.20;40.20;;;;;;5043966;28;20041;-65
2023/03/27 01:16:56;;;;;;;5.63;1.98;;;1.70;37.60;;;;;;5051724;28;20498;-64
2023/03/27 01:19:52;;;;;;;10.77;2.38;;;3.20;33.20;;;;;;5042017;28;20986;-64
2023/03/27 01:22:44;;;;;;;8.55;1.80;;;;;;;;;;5046522;28;20099;-64
2023/03/27 01:25:29;;;;;;;7.18;1.88;;;3.00;36.50;;;;;;5045133;28;20048;-65
2023/03/27 01:28:01;;;;;;;5.72;1.42;;;2.30;46.00;;;;;;5048622;28;20048;-64
2023/03/27 01:30:45;;;;;;;10.40;2.00;;;2.70;46.00;;;;;;5048281;28;20037;-64
2023/03/27 01:33:48;;;;;;;8.27;2.00;;;2.70;43.00;;;;;;5039208;28;20166;-64
2023/03/27 01:36:33;;;;;;;7.45;1.92;;;2.80;13.30;;;;;;5054010;28;20049;-64
2023/03/27 01:39:15;;;;;;;8.77;2.00;;;;;;;;;;5048021;28;20046;-64
2023/03/27 01:41:50;;;;;;;7.57;1.65;;;2.60;39.10;;;;;;5051500;28;20036;-64
2023/03/27 01:44:24;;;;;;;6.05;1.63;;;2.80;49.80;;;;;;5050651;28;20086;-65
2023/03/27 01:46:56;;;;;;;4.50;1.40;;;;;;;;;;5039322;28;20499;-64
2023/03/27 01:49:38;;;;;;;11.32;1.98;;;3.00;30.40;;;;;;5052035;28;20108;-63
2023/03/27 01:52:09;;;;;;;9.60;1.73;;;2.90;1.00;;;;;;5049958;28;20502;-65
2023/03/27 01:54:40;;;;;;;5.82;1.90;;;3.00;1.00;;;;;;5045583;28;20025;-64
2023/03/27 01:57:08;;;;;;;5.25;1.50;;;2.90;1.00;;;;;;5042966;28;20095;-64
2023/03/27 01:59:38;;;;;;;9.40;2.40;;;2.90;1.00;;;;;;5047172;28;20052;-66
2023/03/27 02:02:28;;;;;;;10.63;1.98;;;;;;;;;;5051595;28;20098;-65
2023/03/27 02:05:14;;;;;;;6.63;1.40;;;2.90;1.00;;;;;;5045791;28;20413;-65
2023/03/27 02:07:46;;;;;;;10.43;2.40;;;;;;;;;;5037061;28;20049;-64
2023/03/27 02:10:16;;;;;;;10.05;1.98;;;;;;;;;;5045893;28;20454;-64
2023/03/27 02:12:51;;;;;;;8.13;2.30;;;2.80;1.00;;;;;;5048881;28;20452;-65
2023/03/27 02:15:21;;;;;;;6.20;1.60;;;2.50;42.50;;;;;;5041896;28;20044;-65
2023/03/27 02:17:51;;;;;;;6.72;1.95;;;2.60;18.30;;;;;;5051118;28;20083;-65
2023/03/27 02:20:18;;;;;;;5.50;1.88;;;2.60;59.20;;;;;;5048140;28;20041;-64
2023/03/27 02:22:47;;;;;;;9.40;2.20;;;2.80;65.40;;;;;;5046037;28;20567;-64
2023/03/27 02:25:20;;;;;;;8.25;2.88;;;;;;;;;;5048964;28;20110;-64
2023/03/27 02:27:49;;;;;;;7.72;1.92;;;2.50;66.80;;;;;;5048187;28;20406;-65
2023/03/27 02:30:26;;;;;;;7.15;2.03;;;;;;;;;;5044264;28;20486;-64
2023/03/27 02:33:00;;;;;;;7.78;2.00;;;2.50;62.30;;;;;;5044960;28;20041;-64
2023/03/27 02:35:49;;;;;;;7.78;1.95;;;2.80;46.10;;;;;;5044382;28;20044;-64
2023/03/27 02:38:23;;;;;;;9.02;1.90;;;2.70;1.00;;;;;;5040521;28;20092;-64
2023/03/27 02:41:07;;;;;;;4.43;1.30;;;;;;;;;;5048049;28;20033;-64
2023/03/27 02:43:46;;;;;;;9.27;1.70;;;2.80;1.00;;;;;;5047911;28;20128;-64
2023/03/27 02:46:20;;;;;;;6.13;1.50;;;2.00;1.00;;;;;;5037856;28;20095;-64
2023/03/27 02:48:50;;;;;;;10.93;2.00;;;2.90;99.90;;;;;;5045142;28;20072;-64
2023/03/27 02:51:40;;;;;;;6.28;1.95;;;2.50;1.00;;;;;;5041579;28;20048;-64
2023/03/27 02:54:10;;;;;;;7.05;1.80;;;2.40;1.00;;;;;;5041256;28;20051;-63
2023/03/27 02:56:39;;;;;;;11.82;2.13;;;;;;;;;;5045201;28;20049;-64
2023/03/27 02:59:09;;;;;;;11.25;2.65;;;2.70;1.00;;;;;;5050405;28;20045;-64
2023/03/27 03:01:37;;;;;;;9.35;2.40;;;;;;;;;;5050671;28;20044;-64
2023/03/27 03:04:07;;;;;;;6.63;2.63;;;;;;;;;;5047660;28;20540;-64
2023/03/27 03:06:34;;;;;;;5.97;1.55;;;;;;;;;;5044058;28;20053;-64
2023/03/27 03:09:03;;;;;;;9.30;2.40;;;;;;;;;;5031844;28;20040;-64
2023/03/27 03:11:30;;;;;;;7.75;2.03;;;;;;;;;;5041101;28;20052;-64
2023/03/27 03:13:56;;;;;;;7.88;1.60;;;;;;;;;;5048964;28;20044;-64
2023/03/27 03:16:22;;;;;;;6.20;1.90;;;2.00;1.00;;;;;;5041444;28;20059;-64
2023/03/27 03:18:48;;;;;;;8.05;1.90;;;;;;;;;;5050575;28;20041;-64
2023/03/27 03:21:14;;;;;;;9.73;2.53;;;2.00;1.00;;;;;;5049060;28;20041;-64
2023/03/27 03:23:40;;;;;;;9.88;1.98;;;2.10;1.00;;;;;;5050268;28;20068;-64
2023/03/27 03:26:06;;;;;;;7.13;1.90;;;1.60;1.00;;;;;;5045670;28;20040;-65
2023/03/27 03:28:35;;;;;;;7.97;1.88;;;2.00;1.00;;;;;;5042180;28;20033;-65
2023/03/27 03:31:04;;;;;;;6.45;2.05;;;2.30;1.00;;;;;;5049334;28;20029;-65
2023/03/27 03:33:30;;;;;;;8.05;1.98;;;2.30;1.00;;;;;;5048556;28;20558;-65
2023/03/27 03:36:00;;;;;;;12.60;2.20;;;2.40;1.00;;;;;;5043745;28;20033;-64
2023/03/27 03:38:29;;;;;;;14.68;2.42;;;;;;;;;;5044632;28;20068;-64
2023/03/27 03:40:57;;;;;;;9.82;2.47;;;;;;;;;;5047015;28;20059;-64
2023/03/27 03:43:23;;;;;;;12.10;3.17;;;;;;;;;;5050464;28;20033;-64
2023/03/27 03:45:49;;;;;;;10.95;2.72;;;2.30;1.00;;;;;;5042214;28;20033;-64
2023/03/27 03:48:16;;;;;;;10.02;2.65;;;;;;;;;;5041943;28;20040;-64
2023/03/27 03:50:43;;;;;;;10.52;2.53;;;2.00;55.40;;;;;;5029524;28;20624;-64
2023/03/27 03:53:12;;;;;;;17.33;3.00;;;;;;;;;;5044837;28;20033;-64
2023/03/27 03:55:37;;;;;;;10.55;2.38;;;2.10;43.70;;;;;;5035724;28;20041;-64
2023/03/27 03:58:04;;;;;;;11.45;3.10;;;2.30;22.70;;;;;;5046227;28;20048;-64
2023/03/27 04:00:30;;;;;;;8.48;2.97;;;1.80;1.00;;;;;;5045957;28;20048;-63
2023/03/27 04:02:56;;;;;;;10.93;3.95;;;2.30;14.50;;;;;;5049532;28;20098;-65
2023/03/27 04:05:22;;;;;;;8.23;2.38;;;2.40;6.80;;;;;;5042722;28;20037;-65
2023/03/27 04:07:49;;;;;;;9.60;2.72;;;2.40;20.50;;;;;;5048732;28;20132;-64
2023/03/27 04:10:15;;;;;;;12.35;2.78;;;2.30;5.60;;;;;;5041661;28;20108;-64
2023/03/27 04:12:48;;;;;;;12.75;3.35;;;;;;;;;;5048163;28;20095;-65
2023/03/27 04:15:15;;;;;;;9.52;2.40;;;2.20;1.00;;;;;;5045737;28;20045;-64
2023/03/27 04:17:41;;;;;;;9.82;2.40;;;2.30;1.00;;;;;;5046388;28;20044;-64
2023/03/27 04:20:07;;;;;;;9.32;2.00;;;2.20;1.00;;;;;;5040719;28;20522;-63
2023/03/27 04:22:36;;;;;;;8.43;2.45;;;1.90;1.00;;;;;;5040598;28;20047;-64
2023/03/27 04:25:07;;;;;;;8.50;2.30;;;2.40;1.00;;;;;;5041731;28;20045;-64
2023/03/27 04:27:34;;;;;;;6.65;1.80;;;2.40;1.00;;;;;;5045801;28;20041;-63
2023/03/27 04:30:01;;;;;;;7.20;1.52;;;2.30;1.00;;;;;;5044618;28;20112;-67
2023/03/27 04:32:27;;;;;;;6.22;2.00;;;2.20;1.00;;;;;;5049456;28;20402;-67
2023/03/27 04:34:53;;;;;;;4.95;1.40;;;1.90;1.00;;;;;;5048326;28;20040;-68
2023/03/27 04:37:19;;;;;;;9.02;2.60;;;1.70;1.00;;;;;;5040889;28;20033;-68
2023/03/27 04:39:45;;;;;;;9.45;2.00;;;2.10;1.00;;;;;;5044968;28;20037;-68
2023/03/27 04:42:13;;;;;;;8.20;2.53;;;1.90;1.00;;;;;;5040733;28;20044;-67
2023/03/27 04:44:39;;;;;;;18.95;3.53;;;;;;;;;;5040837;28;20048;-66
2023/03/27 04:47:06;;;;;;;9.05;2.35;;;2.20;1.00;;;;;;5045455;28;20160;-68
2023/03/27 04:49:45;;;;;;;11.05;3.28;;;1.80;1.00;;;;;;5048290;28;20037;-68
2023/03/27 04:52:13;;;;;;;9.40;2.20;;;;;;;;;;5049642;28;20068;-69
2023/03/27 04:54:40;;;;;;;8.25;2.13;;;2.30;1.00;;;;;;5050735;28;20040;-69
2023/03/27 04:57:07;;;;;;;12.30;3.10;;;2.00;1.00;;;;;;5057160;28;20044;-69
2023/03/27 04:59:32;;;;;;;17.15;2.88;;;2.20;1.00;;;;;;5038162;28;20043;-68
2023/03/27 05:02:00;;;;;;;7.13;1.98;;;2.70;1.00;;;;;;5028738;28;20029;-68
2023/03/27 05:04:30;;;;;;;8.85;1.80;;;1.80;1.00;;;;;;5042836;28;20112;-68
2023/03/27 05:06:58;;;;;;;8.77;2.13;;;2.50;1.00;;;;;;5049109;28;20124;-68
2023/03/27 05:09:24;;;;;;;10.77;2.08;;;2.10;1.00;;;;;;5034838;28;20494;-68
2023/03/27 05:11:51;;;;;;;7.63;1.50;;;2.10;1.00;;;;;;5006497;28;20064;-67
2023/03/27 05:14:18;;;;;;;8.60;1.83;;;2.10;1.00;;;;;;5047578;28;20061;-68
2023/03/27 05:16:44;;;;;;;15.35;2.35;;;;;;;;;;5049245;28;20056;-68
2023/03/27 05:19:10;;;;;;;9.57;1.70;;;2.00;1.00;;;;;;5035255;28;20129;-68
2023/03/27 05:21:37;;;;;;;9.73;1.73;;;2.00;1.00;;;;;;5043887;28;20037;-68
2023/03/27 05:24:03;;;;;;;9.00;1.67;;;1.90;1.00;;;;;;5042298;28;20552;-66
2023/03/27 05:26:29;;;;;;;8.55;1.50;;;2.10;1.00;;;;;;5047980;28;20087;-67
2023/03/27 05:28:57;;;;;;;13.18;2.58;;;1.60;1.00;;;;;;5047010;28;20486;-68
2023/03/27 05:31:23;;;;;;;8.73;1.80;;;2.60;1.00;;;;;;5030860;28;20068;-68
2023/03/27 05:33:51;;;;;;;6.70;1.83;;;;;;;;;;5048309;28;20491;-68
2023/03/27 05:36:17;;;;;;;7.47;1.80;;;2.20;1.00;;;;;;5049293;28;20041;-67
2023/03/27 05:38:44;;;;;;;7.80;1.48;;;;;;;;;;5048116;28;20238;-68
2023/03/27 05:41:10;;;;;;;5.03;1.33;;;;;;;;;;5042579;28;20052;-68
2023/03/27 05:43:37;;;;;;;8.43;1.73;;;2.10;1.00;;;;;;5047374;28;20045;-68
2023/03/27 05:46:03;;;;;;;4.80;1.27;;;2.40;1.00;;;;;;5048765;28;20029;-67
2023/03/27 05:48:29;;;;;;;5.25;1.50;;;2.60;1.00;;;;;;5047618;28;20039;-67
2023/03/27 05:50:55;;;;;;;4.55;1.15;;;1.70;1.00;;;;;;5045753;28;20029;-68
2023/03/27 05:53:21;;;;;;;6.82;1.30;;;1.90;1.00;;;;;;5047722;28;20112;-67
2023/03/27 05:55:47;;;;;;;5.80;1.20;;;2.00;1.00;;;;;;5048230;28;20073;-68
2023/03/27 05:58:13;;;;;;;6.03;1.52;;;;;;;;;;5048938;28;20422;-68
2023/03/27 06:00:43;;;;;;;7.85;1.40;;;2.00;1.00;;;;;;5047381;28;20044;-68
2023/03/27 06:03:11;;;;;;;8.45;1.90;;;1.60;1.00;;;;;;5040750;28;20519;-68
2023/03/27 06:05:39;;;;;;;9.98;1.95;;;1.80;1.00;;;;;;5026419;28;20052;-68
2023/03/27 06:08:06;;;;;;;7.20;1.50;;;1.70;2.70;;;;;;5048592;28;20090;-68
2023/03/27 06:10:32;;;;;;;10.73;1.65;;;2.10;10.80;;;;;;5031286;28;20036;-68
2023/03/27 06:13:04;;;;;;;10.48;3.08;;;2.20;5.00;;;;;;5047051;28;20084;-68
2023/03/27 06:15:30;;;;;;;9.77;1.80;;;2.00;7.70;;;;;;5049073;28;20067;-68
2023/03/27 06:17:56;;;;;;;8.23;1.80;;;2.10;4.80;;;;;;5040076;28;20056;-68
2023/03/27 06:20:23;;;;;;;10.18;2.38;;;2.20;5.20;;;;;;5048540;28;20313;-67
2023/03/27 06:22:58;;;;;;;10.30;3.05;;;2.30;1.00;;;;;;5050629;28;20048;-68
2023/03/27 06:25:25;;;;;;;7.03;1.75;;;2.50;1.00;;;;;;5056005;28;20049;-68
2023/03/27 06:27:52;;;;;;;9.90;1.77;;;;;;;;;;5044108;28;20599;-68
2023/03/27 06:30:19;;;;;;;9.20;1.98;;;;;;;;;;5053180;28;20073;-68
2023/03/27 06:32:50;;;;;;;8.80;1.75;;;2.40;1.00;;;;;;5038011;28;20055;-68
2023/03/27 06:35:17;;;;;;;9.52;1.92;;;2.30;1.00;;;;;;5052084;28;20120;-68
2023/03/27 06:37:47;;;;;;;8.65;2.35;;;2.60;1.00;;;;;;5051825;28;20044;-68
2023/03/27 06:40:23;;;;;;;6.32;1.38;;;2.40;1.00;;;;;;5052131;28;20047;-69
2023/03/27 06:42:55;;;;;;;7.50;2.13;;;2.60;1.00;;;;;;5050049;28;20083;-68
2023/03/27 06:45:23;;;;;;;9.35;1.83;;;2.50;1.00;;;;;;5051963;28;20120;-68
2023/03/27 06:47:54;;;;;;;7.32;1.50;;;;;;;;;;5047193;28;20412;-68
2023/03/27 06:50:20;;;;;;;7.45;1.83;;;2.50;1.00;;;;;;5050879;28;20041;-68
2023/03/27 06:52:49;;;;;;;7.88;1.65;;;2.60;1.00;;;;;;5051265;28;20406;-68
2023/03/27 06:55:17;;;;;;;9.35;1.58;;;2.40;1.00;;;;;;5046999;28;20045;-68
2023/03/27 06:57:44;;;;;;;9.90;2.95;;;3.00;1.00;;;;;;5042796;28;20059;-68
2023/03/27 07:00:13;;;;;;;8.38;1.73;;;2.90;1.00;;;;;;5051456;28;20403;-68
2023/03/27 07:02:39;;;;;;;7.28;1.60;;;3.20;1.00;;;;;;5050729;28;20045;-68
2023/03/27 07:05:07;;;;;;;8.18;2.15;;;3.00;1.00;;;;;;5046396;28;20452;-68
2023/03/27 07:07:33;;;;;;;9.65;1.80;;;2.80;1.00;;;;;;5050198;28;20041;-68
2023/03/27 07:09:59;;;;;;;6.57;1.30;;;2.90;1.00;;;;;;5049708;28;20048;-68
2023/03/27 07:12:25;;;;;;;8.15;2.72;;;2.90;1.00;;;;;;5049924;28;20444;-68
2023/03/27 07:14:52;;;;;;;8.85;1.40;;;2.90;1.00;;;;;;5051046;28;20522;-68
2023/03/27 07:17:18;;;;;;;9.02;1.88;;;2.70;1.00;;;;;;5051221;28;20037;-68
2023/03/27 07:19:43;;;;;;;8.85;1.73;;;2.70;1.00;;;;;;5049236;28;20049;-69
2023/03/27 07:22:09;;;;;;;8.93;2.42;;;2.80;1.00;;;;;;5050778;28;20041;-68
2023/03/27 07:24:34;;;;;;;7.25;1.40;;;2.60;1.00;;;;;;5049967;28;20091;-68
2023/03/27 07:27:00;;;;;;;5.20;1.40;;;2.70;1.00;;;;;;5050811;28;20040;-68
2023/03/27 07:29:26;;;;;;;6.68;1.50;;;2.70;1.00;;;;;;5049745;28;20036;-68
2023/03/27 07:31:51;;;;;;;8.23;2.00;;;2.60;1.00;;;;;;5044356;28;20039;-68
2023/03/27 07:34:18;;;;;;;5.82;1.30;;;2.50;1.00;;;;;;5050631;28;20065;-68
2023/03/27 07:36:43;;;;;;;7.75;1.95;;;3.00;1.00;;;;;;5050509;28;20076;-68
2023/03/27 07:39:11;;;;;;;7.68;1.58;;;2.60;1.00;;;;;;5039097;28;20071;-68
2023/03/27 07:41:37;;;;;;;6.95;1.50;;;3.10;1.00;;;;;;5041259;28;20049;-68
2023/03/27 07:44:03;;;;;;;8.20;1.80;;;3.40;99.90;;;;;;5015390;28;20129;-69
2023/03/27 07:46:29;;;;;;;7.00;1.55;;;3.50;99.90;;;;;;5050769;28;20041;-68
2023/03/27 07:48:55;;;;;;;8.82;1.73;;;3.80;99.90;;;;;;5050274;28;20040;-68
2023/03/27 07:51:22;;;;;;;7.53;2.08;;;3.90;99.90;;;;;;5043316;28;20080;-68
2023/03/27 07:53:52;;;;;;;10.98;2.30;;;4.40;99.90;;;;;;5038287;28;20091;-68
2023/03/27 07:56:19;;;;;;;7.72;1.90;;;4.10;99.90;;;;;;5050357;28;20037;-68
2023/03/27 07:58:45;;;;;;;6.85;2.10;;;4.30;99.90;;;;;;5048669;28;20360;-68
2023/03/27 08:01:12;;;;;;;7.82;2.00;;;;;;;;;;5049811;28;20033;-68
2023/03/27 08:03:37;;;;;;;6.35;2.10;;;4.10;1.00;;;;;;5049486;28;20068;-69
2023/03/27 08:06:05;;;;;;;7.55;1.30;;;4.10;1.00;;;;;;5050238;28;20037;-68
2023/03/27 08:08:30;;;;;;;7.85;1.42;;;4.10;1.00;;;;;;5036931;28;20116;-68
2023/03/27 08:10:58;;;;;;;6.00;1.45;;;3.90;1.00;;;;;;5039617;28;20108;-68
2023/03/27 08:13:24;;;;;;;3.42;1.00;;;3.60;1.00;;;;;;5048892;28;20033;-68
2023/03/27 08:15:50;;;;;;;4.10;1.50;;;3.50;1.00;;;;;;5050029;28;20116;-67
2023/03/27 08:18:15;;;;;;;5.60;1.25;;;3.00;1.00;;;;;;5048958;28;20115;-67
2023/03/27 08:20:41;;;;;;;7.40;1.42;;;;;;;;;;5043995;28;20486;-67
2023/03/27 08:23:07;;;;;;;4.57;1.45;;;2.60;1.00;;;;;;5030962;28;20041;-67
2023/03/27 08:25:33;;;;;;;5.05;1.20;;;2.80;1.00;;;;;;5032531;28;20048;-67
2023/03/27 08:28:00;;;;;;;4.28;1.20;;;2.80;1.00;;;;;;5048340;28;20051;-67
2023/03/27 08:30:26;;;;;;;4.95;1.40;;;2.70;1.00;;;;;;5043917;28;20550;-67
2023/03/27 08:32:52;;;;;;;6.82;1.60;;;2.80;1.00;;;;;;5045483;28;20311;-67
2023/03/27 08:35:18;;;;;;;5.20;1.38;;;2.80;1.00;;;;;;5048696;28;20040;-67
2023/03/27 08:37:43;;;;;;;4.07;1.10;;;2.60;1.00;;;;;;5048195;28;20474;-67
2023/03/27 08:40:27;;;;;;;8.15;1.33;;;2.70;1.00;;;;;;5041066;28;20041;-67
2023/03/27 08:42:57;;;;;;;6.65;1.50;;;2.90;1.00;;;;;;5036936;28;20076;-67
2023/03/27 08:45:28;;;;;;;6.40;1.85;;;2.90;1.00;;;;;;5047806;28;20037;-67
2023/03/27 08:48:16;;;;;;;7.07;1.52;;;;;;;;;;5036496;28;20036;-67
2023/03/27 08:50:48;;;;;;;7.22;2.03;;;3.20;1.00;;;;;;5037403;28;20115;-67
2023/03/27 08:53:42;;;;;;;9.48;1.80;;;2.70;1.00;;;;;;5049845;28;20064;-67
2023/03/27 08:56:12;;;;;;;7.25;1.63;;;;;;;;;;5045874;28;20119;-68
2023/03/27 08:58:38;;;;;;;9.68;2.35;;;3.70;1.00;;;;;;5042016;28;20389;-67
2023/03/27 09:01:28;;;;;;;6.50;1.30;;;3.60;1.00;;;;;;5048182;28;20044;-67
2023/03/27 09:04:08;;;;;;;9.90;2.05;;;3.80;1.00;;;;;;5045075;28;20075;-67
2023/03/27 09:06:41;;;;;;;7.95;1.75;;;4.10;1.00;;;;;;5044755;28;20087;-67
2023/03/27 09:09:16;;;;;;;8.23;2.03;;;3.70;99.90;;;;;;5048996;28;20041;-67
2023/03/27 09:12:02;;;;;;;9.70;1.85;;;;;;;;;;5044508;28;20103;-67
2023/03/27 09:14:31;;;;;;;6.40;1.73;;;;;;;;;;5044759;28;20040;-67
2023/03/27 09:17:02;;;;;;;5.80;1.45;;;4.00;99.90;;;;;;5040999;28;20510;-67
2023/03/27 09:19:46;;;;;;;6.50;1.65;;;4.30;99.90;;;;;;5035886;28;20095;-67
2023/03/27 09:22:26;;;;;;;7.72;1.77;;;4.30;99.90;;;;;;5048289;28;20040;-67
2023/03/27 09:24:55;;;;;;;6.03;2.17;;;4.10;99.90;;;;;;5047392;28;20119;-68
2023/03/27 09:27:27;;;;;;;8.07;1.58;;;;;;;;;;5046042;28;20041;-67
2023/03/27 09:30:18;;;;;;;7.22;1.40;;;3.80;99.90;;;;;;5047438;28;20116;-68
2023/03/27 09:32:46;;;;;;;8.48;2.58;;;3.60;1.00;;;;;;5049474;28;20040;-67
2023/03/27 09:35:19;;;;;;;5.70;1.30;;;3.80;99.90;;;;;;5045696;28;20168;-67
2023/03/27 09:37:47;;;;;;;5.65;1.20;;;4.10;99.90;;;;;;5028010;28;20041;-68
2023/03/27 09:40:22;;;;;;;5.20;1.10;;;;;;;;;;5030414;28;20154;-68
2023/03/27 09:42:50;;;;;;;5.70;1.40;;;4.00;99.90;;;;;;5042221;28;20048;-67
2023/03/27 09:45:17;;;;;;;7.10;1.63;;;;;;;;;;5049043;28;20033;-67
2023/03/27 09:47:57;;;;;;;4.82;1.25;;;;;;;;;;5048986;28;20077;-68
2023/03/27 09:50:34;;;;;;;5.28;1.40;;;;;;;;;;5041346;28;20501;-68
2023/03/27 09:53:18;;;;;;;8.40;1.67;;;4.00;99.90;;;;;;5045962;28;20037;-68
2023/03/27 09:55:55;;;;;;;8.38;1.52;;;4.30;1.00;;;;;;5041537;28;20080;-68
2023/03/27 09:58:29;;;;;;;5.70;1.60;;;4.00;1.00;;;;;;5045678;28;20029;-68
2023/03/27 10:01:12;;;;;;;8.93;1.63;;;;;;;;;;5049578;28;20045;-68
2023/03/27 10:03:50;;;;;;;7.30;1.25;;;4.00;99.90;;;;;;5047740;28;20052;-68
2023/03/27 10:06:40;;;;;;;7.20;1.17;;;4.90;99.90;;;;;;5049119;28;20040;-68
2023/03/27 10:09:33;;;;;;;5.00;1.20;;;4.00;99.90;;;;;;5044722;28;20553;-68
2023/03/27 10:12:19;;;;;;;4.57;1.52;;;4.30;99.90;;;;;;5046092;28;20045;-68
2023/03/27 10:14:48;;;;;;;7.00;1.98;;;5.00;99.90;;;;;;5056008;28;20535;-68
2023/03/27 10:17:36;;;;;;;6.63;1.20;;;4.10;99.90;;;;;;5052422;28;20041;-68
2023/03/27 10:20:09;;;;;;;6.47;1.55;;;4.50;99.90;;;;;;5043668;28;20108;-68
2023/03/27 10:22:38;;;;;;;6.40;1.33;;;4.40;99.90;;;;;;5050635;28;20076;-68
2023/03/27 10:25:20;;;;;;;5.93;1.30;;;5.10;99.90;;;;;;5061344;28;20033;-68
2023/03/27 10:27:46;;;;;;;6.40;1.50;;;4.50;99.90;;;;;;5047768;28;20047;-68
2023/03/27 10:30:30;;;;;;;3.67;0.90;;;4.80;99.90;;;;;;5055658;28;20462;-68
2023/03/27 10:32:56;;;;;;;3.08;0.90;;;4.50;99.90;;;;;;5052825;28;20106;-68
2023/03/27 10:35:26;;;;;;;4.18;0.98;;;4.20;99.90;;;;;;5046041;28;20065;-67
2023/03/27 10:37:53;;;;;;;3.95;1.00;;;4.10;99.90;;;;;;5042926;28;20037;-67
2023/03/27 10:40:23;;;;;;;4.65;1.02;;;4.00;99.90;;;;;;5045761;28;20044;-68
2023/03/27 10:42:49;;;;;;;6.47;1.20;;;4.20;99.90;;;;;;5040284;28;20037;-68
2023/03/27 10:45:18;;;;;;;3.72;0.93;;;3.80;99.90;;;;;;5047041;28;20044;-68
2023/03/27 10:47:52;;;;;;;6.72;1.45;;;4.10;99.90;;;;;;5047168;28;20421;-69
2023/03/27 10:50:37;;;;;;;3.95;1.00;;;3.90;44.60;;;;;;5043578;28;20045;-68
2023/03/27 10:53:16;;;;;;;;;;;4.10;99.90;;;;;;5048469;28;20095;-69
2023/03/27 10:56:07;;;;;;;13.00;1.95;;;4.10;99.90;;;;;;5046757;28;19963;-68
2023/03/27 10:58:47;;;;;;;10.65;1.98;;;3.80;99.90;;;;;;5045688;28;20041;-68
2023/03/27 11:01:33;;;;;;;8.95;1.55;;;4.60;99.90;;;;;;5046700;28;20044;-68
2023/03/27 11:04:19;;;;;;;7.00;1.55;;;5.40;99.90;;;;;;5044328;28;20045;-68
2023/03/27 11:06:48;;;;;;;8.27;1.38;;;5.70;1.00;;;;;;5062022;28;20045;-68
2023/03/27 11:09:24;;;;;;;6.60;1.33;;;5.50;99.90;;;;;;5044897;28;20410;-69
2023/03/27 11:12:11;;;;;;;5.35;1.35;;;5.30;49.60;;;;;;5037393;28;20049;-68
2023/03/27 11:14:47;;;;;;;16.23;1.50;;;5.60;1.00;;;;;;5049833;28;20513;-68
2023/03/27 11:17:19;;;;;;;7.75;1.50;;;5.10;1.00;;;;;;5049070;28;20053;-68
2023/03/27 11:20:05;;;;;;;6.80;1.48;;;5.20;1.00;;;;;;5051166;28;20069;-68
2023/03/27 11:22:44;;;;;;;7.00;1.40;;;4.80;99.80;;;;;;5044556;28;20406;-69
2023/03/27 11:25:31;;;;;;;10.15;2.20;;;4.30;99.90;;;;;;5049645;28;20494;-68
2023/03/27 11:28:01;;;;;;;6.80;1.98;;;;;;;;;;5050367;28;20049;-68
2023/03/27 11:30:54;;;;;;;6.50;1.70;;;5.10;99.90;;;;;;5050640;28;20410;-68
2023/03/27 11:33:33;;;;;;;6.85;1.52;;;5.40;99.90;;;;;;5047130;28;20112;-69
2023/03/27 11:36:21;;;;;;;7.63;1.98;;;4.80;99.90;;;;;;5050786;28;20045;-68
2023/03/27 11:38:57;;;;;;;7.10;1.77;;;4.90;99.90;;;;;;5050632;28;20053;-68
2023/03/27 11:41:25;;;;;;;5.80;1.83;;;4.90;99.90;;;;;;5038842;28;20104;-69
2023/03/27 11:43:50;;;;;;;10.88;3.10;;;5.10;1.00;;;;;;5046450;28;20033;-69
2023/03/27 11:46:39;;;;;;;10.45;2.13;;;4.90;29.90;;;;;;5041940;28;20548;-68
2023/03/27 11:49:46;;;;;;;7.57;1.92;;;5.60;99.90;;;;;;5048414;28;20037;-69
2023/03/27 11:52:33;;;;;;;6.65;1.63;;;5.70;1.00;;;;;;5040867;28;20053;-69
2023/03/27 11:55:27;;;;;;;7.10;1.52;;;5.70;21.50;;;;;;5047562;28;20086;-69
2023/03/27 11:58:07;;;;;;;7.53;2.15;;;5.50;99.90;;;;;;5042089;28;20040;-69
2023/03/27 12:01:08;;;;;;;10.45;2.40;;;6.30;99.90;;;;;;5043514;28;20040;-69
2023/03/27 12:03:59;;;;;;;6.78;1.58;;;5.80;99.90;;;;;;5039303;28;20059;-69
2023/03/27 12:06:42;;;;;;;7.13;1.67;;;6.00;99.90;;;;;;5047905;28;20088;-68
2023/03/27 12:09:11;;;;;;;7.90;1.83;;;6.20;99.90;;;;;;5044887;28;20040;-68
2023/03/27 12:11:46;;;;;;;8.18;1.75;;;6.30;99.90;;;;;;5040978;28;20044;-69
2023/03/27 12:14:43;;;;;;;9.40;1.45;;;6.40;99.90;;;;;;5041757;28;20522;-68
2023/03/27 12:17:38;;;;;;;5.60;1.40;;;6.40;99.90;;;;;;5038935;28;20049;-68
2023/03/27 12:20:08;;;;;;;8.73;1.70;;;6.90;90.80;;;;;;5044212;28;20095;-68
2023/03/27 12:22:36;;;;;;;5.80;1.50;;;7.20;29.80;;;;;;5049534;28;20652;-68
2023/03/27 12:25:23;;;;;;;10.32;1.95;;;;;;;;;;5043016;28;20128;-68
2023/03/27 12:27:52;;;;;;;5.97;1.42;;;7.90;99.90;;;;;;5040062;28;20045;-68
2023/03/27 12:30:35;;;;;;;7.78;1.88;;;7.70;99.90;;;;;;5048461;28;20047;-68
2023/03/27 12:33:24;;;;;;;11.75;2.45;;;7.70;1.00;;;;;;5044721;28;20043;-68
2023/03/27 12:35:53;;;;;;;9.02;2.47;;;7.80;99.90;;;;;;5039285;28;20098;-68
2023/03/27 12:38:31;;;;;;;11.02;2.00;;;7.30;99.90;;;;;;5038181;28;20034;-68
2023/03/27 12:41:04;;;;;;;7.88;2.17;;;7.30;1.00;;;;;;5037022;28;20483;-68
2023/03/27 12:43:38;;;;;;;5.88;1.88;;;8.00;1.00;;;;;;5049111;28;20041;-68
2023/03/27 12:46:14;;;;;;;6.72;1.55;;;9.60;99.90;;;;;;5040915;28;20684;-68
2023/03/27 12:48:57;;;;;;;7.10;1.52;;;11.20;99.90;;;;;;5044084;28;20041;-68
2023/03/27 12:51:36;;;;;;;7.88;1.80;;;13.00;1.00;;;;;;5035187;28;20483;-68
2023/03/27 12:54:25;;;;;;;6.60;1.58;;;13.30;1.00;;;;;;5038875;28;20101;-69
2023/03/27 12:57:04;;;;;;;8.13;1.50;;;14.00;1.00;;;;;;5036841;28;20049;-68
2023/03/27 12:59:33;;;;;;;6.82;2.25;;;12.20;1.00;;;;;;5046966;28;20402;-68
2023/03/27 13:02:02;;;;;;;6.35;1.67;;;11.80;1.00;;;;;;5034152;28;20044;-69
2023/03/27 13:05:18;;;;;;;7.85;1.65;;;12.60;99.90;;;;;;5049240;28;20466;-69
2023/03/27 13:08:03;;;;;;;10.70;1.98;;;;;;;;;;5009597;28;20061;-70
2023/03/27 13:11:12;;;;;;;6.45;1.77;;;15.90;99.90;;;;;;5038528;28;20524;-69
2023/03/27 13:13:43;;;;;;;8.10;1.90;;;14.80;99.90;;;;;;5037644;28;20036;-69
2023/03/27 13:16:34;;;;;;;9.70;2.17;;;;;;;;;;5047686;28;20193;-69
2023/03/27 13:19:11;;;;;;;6.25;1.38;;;11.50;1.00;;;;;;5041696;28;20040;-70
2023/03/27 13:21:47;;;;;;;6.82;1.55;;;11.60;99.90;;;;;;5048598;28;20502;-69
2023/03/27 13:24:29;;;;;;;4.90;1.20;;;11.10;1.00;;;;;;5042029;28;20060;-68
2023/03/27 13:27:05;;;;;;;6.80;1.55;;;12.00;99.90;;;;;;5046769;28;20041;-70
2023/03/27 13:29:33;;;;;;;7.53;1.50;;;12.60;1.00;;;;;;5047741;28;20509;-70
2023/03/27 13:32:31;;;;;;;9.77;1.80;;;14.20;99.90;;;;;;5048927;28;20029;-70
2023/03/27 13:35:20;;;;;;;6.25;1.67;;;16.20;99.90;;;;;;5049249;28;20037;-69
2023/03/27 13:37:48;;;;;;;9.57;1.90;;;16.90;99.90;;;;;;5048038;28;20055;-69
2023/03/27 13:40:25;;;;;;;7.40;2.05;;;17.60;99.90;;;;;;5051194;28;20043;-69
2023/03/27 13:43:08;;;;;;;5.18;1.20;;;19.10;99.90;;;;;;5040310;28;20119;-70
2023/03/27 13:45:51;;;;;;;6.65;1.50;;;18.20;99.90;;;;;;5041534;28;20111;-70